createdAt,value
2019-03-28T00:00:31.778Z,102508.00
2019-03-28T00:03:03.095Z,102509.00
2019-03-28T00:05:34.552Z,102505.00
2019-03-28T00:08:05.488Z,102508.00
2019-03-28T00:10:36.745Z,102493.00
2019-03-28T00:13:08.255Z,102500.00
2019-03-28T00:15:39.425Z,102500.00
2019-03-28T00:18:10.482Z,102485.00
2019-03-28T00:20:41.475Z,102493.00
2019-03-28T00:23:49.088Z,102499.00
2019-03-28T00:26:30.036Z,102495.00
2019-03-28T00:28:53.378Z,102490.00
2019-03-28T00:31:24.261Z,102489.00
2019-03-28T00:33:55.210Z,102489.00
2019-03-28T00:36:26.246Z,102479.00
2019-03-28T00:38:57.366Z,102479.00
2019-03-28T00:41:28.404Z,102481.00
2019-03-28T00:43:59.482Z,102470.00
2019-03-28T00:46:31.361Z,102468.00
2019-03-28T00:49:02.672Z,102467.00
2019-03-28T00:51:34.133Z,102467.00
2019-03-28T00:54:05.157Z,102477.00
2019-03-28T00:56:45.225Z,102478.00
2019-03-28T00:59:09.096Z,102472.00
2019-03-28T01:01:40.537Z,102476.00
2019-03-28T01:04:11.997Z,102475.00
2019-03-28T01:06:42.803Z,102482.00
2019-03-28T01:09:13.975Z,102487.00
2019-03-28T01:11:45.093Z,102483.00
2019-03-28T01:14:16.693Z,102482.00
2019-03-28T01:16:47.908Z,102492.00
2019-03-28T01:19:19.237Z,102486.00
2019-03-28T01:21:50.353Z,102477.00
2019-03-28T01:24:22.969Z,102482.00
2019-03-28T01:26:57.496Z,102484.00
2019-03-28T01:29:27.229Z,102498.00
2019-03-28T01:31:58.280Z,102482.00
2019-03-28T01:34:29.412Z,102489.00
2019-03-28T01:37:00.849Z,102488.00
2019-03-28T01:39:31.914Z,102480.00
2019-03-28T01:42:06.230Z,102489.00
2019-03-28T01:44:37.216Z,102491.00
2019-03-28T01:47:08.264Z,102497.00
2019-03-28T01:49:39.518Z,102492.00
2019-03-28T01:52:10.442Z,102490.00
2019-03-28T01:54:41.782Z,102484.00
2019-03-28T01:57:12.937Z,102495.00
2019-03-28T01:59:44.297Z,102486.00
2019-03-28T02:02:16.392Z,102494.00
2019-03-28T02:04:47.408Z,102497.00
2019-03-28T02:07:18.562Z,102498.00
2019-03-28T02:09:49.670Z,102505.00
2019-03-28T02:12:21.001Z,102501.00
2019-03-28T02:14:51.979Z,102495.00
2019-03-28T02:17:23.444Z,102498.00
2019-03-28T02:19:54.505Z,102502.00
2019-03-28T02:22:27.895Z,102497.00
2019-03-28T02:24:58.981Z,102505.00
2019-03-28T02:27:30.301Z,102502.00
2019-03-28T02:30:02.424Z,102508.00
2019-03-28T02:32:33.946Z,102496.00
2019-03-28T02:35:05.307Z,102507.00
2019-03-28T02:37:36.298Z,102504.00
2019-03-28T02:40:10.875Z,102512.00
2019-03-28T02:42:42.016Z,102517.00
2019-03-28T02:45:13.473Z,102513.00
2019-03-28T02:47:44.517Z,102521.00
2019-03-28T02:50:15.472Z,102518.00
2019-03-28T02:52:47.452Z,102520.00
2019-03-28T02:55:18.935Z,102509.00
2019-03-28T02:57:52.015Z,102507.00
2019-03-28T03:00:23.304Z,102510.00
2019-03-28T03:02:54.777Z,102514.00
2019-03-28T03:05:26.398Z,102514.00
2019-03-28T03:07:57.344Z,102512.00
2019-03-28T03:10:28.586Z,102519.00
2019-03-28T03:12:59.631Z,102505.00
2019-03-28T03:15:30.713Z,102509.00
2019-03-28T03:18:02.028Z,102523.00
2019-03-28T03:20:33.364Z,102520.00
2019-03-28T03:23:04.301Z,102515.00
2019-03-28T03:25:35.373Z,102520.00
2019-03-28T03:28:06.576Z,102512.00
2019-03-28T03:30:37.646Z,102518.00
2019-03-28T03:33:09.446Z,102517.00
2019-03-28T03:35:40.925Z,102520.00
2019-03-28T03:38:11.996Z,102527.00
2019-03-28T03:40:42.894Z,102516.00
2019-03-28T03:43:14.683Z,102521.00
2019-03-28T03:45:45.812Z,102517.00
2019-03-28T03:48:16.854Z,102522.00
2019-03-28T03:50:48.697Z,102523.00
2019-03-28T03:53:20.074Z,102522.00
2019-03-28T03:55:51.505Z,102512.00
2019-03-28T03:58:22.555Z,102529.00
2019-03-28T04:00:53.595Z,102517.00
2019-03-28T04:03:25.273Z,102520.00
2019-03-28T04:05:56.792Z,102525.00
2019-03-28T04:08:28.481Z,102531.00
2019-03-28T04:10:59.565Z,102535.00
2019-03-28T04:13:30.611Z,102523.00
2019-03-28T04:16:01.808Z,102535.00
2019-03-28T04:18:32.772Z,102527.00
2019-03-28T04:21:03.873Z,102533.00
2019-03-28T04:23:35.117Z,102535.00
2019-03-28T04:26:06.262Z,102540.00
2019-03-28T04:28:39.058Z,102538.00
2019-03-28T04:31:13.464Z,102553.00
2019-03-28T04:33:44.475Z,102543.00
2019-03-28T04:36:15.738Z,102548.00
2019-03-28T04:38:46.772Z,102542.00
2019-03-28T04:41:17.786Z,102554.00
2019-03-28T04:43:48.992Z,102545.00
2019-03-28T04:46:19.863Z,102545.00
2019-03-28T04:48:50.913Z,102558.00
2019-03-28T04:51:21.886Z,102563.00
2019-03-28T04:53:56.303Z,102557.00
2019-03-28T04:56:26.427Z,102553.00
2019-03-28T04:58:57.692Z,102562.00
2019-03-28T05:01:28.666Z,102560.00
2019-03-28T05:03:59.904Z,102569.00
2019-03-28T05:06:31.373Z,102560.00
2019-03-28T05:09:02.372Z,102564.00
2019-03-28T05:11:33.537Z,102561.00
2019-03-28T05:14:06.577Z,102566.00
2019-03-28T05:16:39.631Z,102565.00
2019-03-28T05:19:11.484Z,102577.00
2019-03-28T05:21:42.756Z,102571.00
2019-03-28T05:24:14.218Z,102572.00
2019-03-28T05:26:45.993Z,102566.00
2019-03-28T05:29:16.875Z,102577.00
2019-03-28T05:31:47.947Z,102576.00
2019-03-28T05:34:19.210Z,102581.00
2019-03-28T05:36:52.091Z,102572.00
2019-03-28T05:39:23.762Z,102590.00
2019-03-28T05:41:55.077Z,102581.00
2019-03-28T05:44:26.774Z,102590.00
2019-03-28T05:46:58.181Z,102595.00
2019-03-28T05:49:29.814Z,102592.00
2019-03-28T05:52:01.839Z,102599.00
2019-03-28T05:54:33.525Z,102608.00
2019-03-28T05:57:04.835Z,102614.00
2019-03-28T05:59:36.285Z,102599.00
2019-03-28T06:02:07.713Z,102605.00
2019-03-28T06:04:39.371Z,102605.00
2019-03-28T06:07:10.989Z,102592.00
2019-03-28T06:09:42.415Z,102600.00
2019-03-28T06:12:19.014Z,102595.00
2019-03-28T06:14:49.603Z,102606.00
2019-03-28T06:17:20.782Z,102607.00
2019-03-28T06:19:52.503Z,102611.00
2019-03-28T06:22:24.019Z,102607.00
2019-03-28T06:24:56.353Z,102611.00
2019-03-28T06:27:27.663Z,102608.00
2019-03-28T06:30:01.914Z,102597.00
2019-03-28T06:32:42.837Z,102589.00
2019-03-28T06:35:06.641Z,102587.00
2019-03-28T06:37:38.363Z,102582.00
2019-03-28T06:40:12.222Z,102589.00
2019-03-28T06:42:43.970Z,102580.00
2019-03-28T06:45:15.384Z,102583.00
2019-03-28T06:47:46.876Z,102591.00
2019-03-28T06:50:18.286Z,102589.00
2019-03-28T06:52:49.573Z,102599.00
2019-03-28T06:55:24.041Z,102598.00
2019-03-28T06:57:55.306Z,102603.00
2019-03-28T07:00:26.850Z,102604.00
2019-03-28T07:02:58.448Z,102592.00
2019-03-28T07:05:30.174Z,102596.00
2019-03-28T07:08:01.868Z,102596.00
2019-03-28T07:10:34.460Z,102595.00
2019-03-28T07:13:06.012Z,102593.00
2019-03-28T07:15:37.251Z,102593.00
2019-03-28T07:18:08.977Z,102606.00
2019-03-28T07:20:42.073Z,102607.00
2019-03-28T07:23:14.439Z,102603.00
2019-03-28T07:25:45.954Z,102605.00
2019-03-28T07:28:17.575Z,102617.00
2019-03-28T07:30:50.505Z,102609.00
2019-03-28T07:33:21.846Z,102613.00
2019-03-28T07:35:53.241Z,102624.00
2019-03-28T07:38:27.409Z,102620.00
2019-03-28T07:40:58.965Z,102619.00
2019-03-28T07:43:30.245Z,102613.00
2019-03-28T07:46:04.301Z,102624.00
2019-03-28T07:48:37.181Z,102632.00
2019-03-28T07:51:08.483Z,102633.00
2019-03-28T07:53:39.620Z,102640.00
2019-03-28T07:56:14.343Z,102633.00
2019-03-28T07:58:45.603Z,102627.00
2019-03-28T08:01:18.213Z,102623.00
2019-03-28T08:03:49.956Z,102618.00
2019-03-28T08:06:21.260Z,102631.00
2019-03-28T08:08:52.994Z,102628.00
2019-03-28T08:11:24.483Z,102625.00
2019-03-28T08:13:55.669Z,102620.00
2019-03-28T08:16:28.863Z,102621.00
2019-03-28T08:18:59.756Z,102609.00
2019-03-28T08:21:31.346Z,102623.00
2019-03-28T08:24:03.038Z,102619.00
2019-03-28T08:26:34.298Z,102623.00
2019-03-28T08:29:05.606Z,102613.00
2019-03-28T08:31:40.870Z,102612.00
2019-03-28T08:34:12.628Z,102624.00
2019-03-28T08:36:45.867Z,102616.00
2019-03-28T08:39:21.640Z,102615.00
2019-03-28T08:41:53.044Z,102616.00
2019-03-28T08:44:24.307Z,102611.00
2019-03-28T08:46:59.734Z,102628.00
2019-03-28T08:49:31.372Z,102628.00
2019-03-28T08:52:02.989Z,102620.00
2019-03-28T08:54:34.335Z,102643.00
2019-03-28T08:57:05.741Z,102647.00
2019-03-28T08:59:36.955Z,102640.00
2019-03-28T09:02:08.229Z,102633.00
2019-03-28T09:04:39.675Z,102629.00
2019-03-28T09:07:12.046Z,102645.00
2019-03-28T09:09:43.669Z,102638.00
2019-03-28T09:12:14.838Z,102631.00
2019-03-28T09:14:46.168Z,102643.00
2019-03-28T09:17:17.737Z,102640.00
2019-03-28T09:19:49.054Z,102652.00
2019-03-28T09:22:20.754Z,102648.00
2019-03-28T09:24:52.088Z,102647.00
2019-03-28T09:27:23.420Z,102652.00
2019-03-28T09:29:54.570Z,102639.00
2019-03-28T09:32:25.818Z,102651.00
2019-03-28T09:34:57.182Z,102635.00
2019-03-28T09:37:28.560Z,102638.00
2019-03-28T09:40:02.534Z,102638.00
2019-03-28T09:42:33.891Z,102654.00
2019-03-28T09:45:06.112Z,102661.00
2019-03-28T09:47:37.968Z,102639.00
2019-03-28T09:50:09.613Z,102650.00
2019-03-28T09:52:41.508Z,102634.00
2019-03-28T09:55:13.072Z,102639.00
2019-03-28T09:57:44.549Z,102635.00
2019-03-28T10:00:16.981Z,102642.00
2019-03-28T10:02:48.639Z,102633.00
2019-03-28T10:05:19.971Z,102635.00
2019-03-28T10:07:51.352Z,102632.00
2019-03-28T10:10:22.737Z,102646.00
2019-03-28T10:12:54.107Z,102635.00
2019-03-28T10:15:25.461Z,102631.00
2019-03-28T10:17:57.087Z,102634.00
2019-03-28T10:20:28.360Z,102638.00
2019-03-28T10:22:59.475Z,102620.00
2019-03-28T10:25:30.505Z,102621.00
2019-03-28T10:28:02.623Z,102625.00
2019-03-28T10:30:44.591Z,102624.00
2019-03-28T10:33:17.606Z,102630.00
2019-03-28T10:35:49.898Z,102617.00
2019-03-28T10:38:21.241Z,102633.00
2019-03-28T10:40:52.407Z,102638.00
2019-03-28T10:43:23.764Z,102644.00
2019-03-28T10:45:55.180Z,102638.00
2019-03-28T10:48:26.336Z,102638.00
2019-03-28T10:50:57.926Z,102650.00
2019-03-28T10:53:30.269Z,102645.00
2019-03-28T10:56:01.430Z,102650.00
2019-03-28T10:58:34.963Z,102656.00
2019-03-28T11:01:07.275Z,102649.00
2019-03-28T11:03:38.603Z,102650.00
2019-03-28T11:06:09.803Z,102654.00
2019-03-28T11:08:41.037Z,102647.00
2019-03-28T11:11:20.281Z,102646.00
2019-03-28T11:13:51.915Z,102643.00
2019-03-28T11:16:23.045Z,102657.00
2019-03-28T11:18:54.467Z,102655.00
2019-03-28T11:21:25.758Z,102658.00
2019-03-28T11:23:57.297Z,102660.00
2019-03-28T11:26:31.493Z,102653.00
2019-03-28T11:29:03.148Z,102659.00
2019-03-28T11:31:45.586Z,102646.00
2019-03-28T11:34:07.771Z,102649.00
2019-03-28T11:36:39.071Z,102654.00
2019-03-28T11:39:10.587Z,102666.00
2019-03-28T11:41:42.044Z,102660.00
2019-03-28T11:44:13.494Z,102663.00
2019-03-28T11:46:44.698Z,102662.00
2019-03-28T11:49:16.511Z,102654.00
2019-03-28T11:51:48.298Z,102659.00
2019-03-28T11:54:19.798Z,102657.00
2019-03-28T11:56:51.248Z,102656.00
2019-03-28T11:59:23.007Z,102659.00
2019-03-28T12:02:00.019Z,102665.00
2019-03-28T12:04:27.566Z,102665.00
2019-03-28T12:06:58.954Z,102670.00
2019-03-28T12:09:30.316Z,102664.00
2019-03-28T12:12:02.230Z,102664.00
2019-03-28T12:14:33.577Z,102664.00
2019-03-28T12:17:04.886Z,102671.00
2019-03-28T12:19:36.360Z,102678.00
2019-03-28T12:22:07.785Z,102671.00
2019-03-28T12:24:39.093Z,102672.00
2019-03-28T12:27:10.577Z,102666.00
2019-03-28T12:29:42.339Z,102676.00
2019-03-28T12:32:14.689Z,102674.00
2019-03-28T12:34:46.457Z,102669.00
2019-03-28T12:37:18.355Z,102668.00
2019-03-28T12:39:50.035Z,102658.00
2019-03-28T12:42:21.667Z,102658.00
2019-03-28T12:44:57.378Z,102665.00
2019-03-28T12:47:41.205Z,102658.00
2019-03-28T12:50:01.193Z,102655.00
2019-03-28T12:52:32.636Z,102657.00
2019-03-28T12:55:04.347Z,102651.00
2019-03-28T12:57:35.555Z,102660.00
2019-03-28T13:00:08.420Z,102657.00
2019-03-28T13:02:39.478Z,102652.00
2019-03-28T13:05:11.862Z,102652.00
2019-03-28T13:07:43.594Z,102660.00
2019-03-28T13:10:15.823Z,102656.00
2019-03-28T13:12:47.112Z,102652.00
2019-03-28T13:15:18.361Z,102656.00
2019-03-28T13:17:49.634Z,102668.00
2019-03-28T13:20:22.502Z,102669.00
2019-03-28T13:22:55.232Z,102661.00
2019-03-28T13:25:26.922Z,102669.00
2019-03-28T13:27:58.707Z,102670.00
2019-03-28T13:30:30.143Z,102666.00
2019-03-28T13:33:01.640Z,102659.00
2019-03-28T13:35:35.070Z,102659.00
2019-03-28T13:38:05.793Z,102663.00
2019-03-28T13:40:37.068Z,102667.00
2019-03-28T13:43:08.804Z,102665.00
2019-03-28T13:45:40.492Z,102661.00
2019-03-28T13:48:13.766Z,102669.00
2019-03-28T13:50:47.878Z,102663.00
2019-03-28T13:53:19.274Z,102663.00
2019-03-28T13:55:52.143Z,102659.00
2019-03-28T13:58:23.585Z,102658.00
2019-03-28T14:00:56.339Z,102658.00
2019-03-28T14:03:28.094Z,102655.00
2019-03-28T14:05:59.764Z,102647.00
2019-03-28T14:08:32.078Z,102652.00
2019-03-28T14:11:03.563Z,102648.00
2019-03-28T14:13:35.126Z,102656.00
2019-03-28T14:16:06.244Z,102643.00
2019-03-28T14:18:37.405Z,102650.00
2019-03-28T14:21:09.198Z,102641.00
2019-03-28T14:23:40.667Z,102643.00
2019-03-28T14:26:14.213Z,102642.00
2019-03-28T14:28:50.429Z,102643.00
2019-03-28T14:31:22.061Z,102641.00
2019-03-28T14:33:53.653Z,102639.00
2019-03-28T14:36:25.465Z,102638.00
2019-03-28T14:38:57.151Z,102645.00
2019-03-28T14:41:28.381Z,102643.00
2019-03-28T14:44:00.010Z,102646.00
2019-03-28T14:46:31.486Z,102644.00
2019-03-28T14:49:05.039Z,102634.00
2019-03-28T14:51:37.055Z,102631.00
2019-03-28T14:54:09.081Z,102633.00
2019-03-28T14:56:41.563Z,102635.00
2019-03-28T14:59:14.297Z,102640.00
2019-03-28T15:01:46.002Z,102635.00
2019-03-28T15:04:17.722Z,102648.00
2019-03-28T15:06:49.564Z,102631.00
2019-03-28T15:09:21.321Z,102638.00
2019-03-28T15:11:53.202Z,102630.00
2019-03-28T15:14:24.497Z,102629.00
2019-03-28T15:16:56.046Z,102638.00
2019-03-28T15:19:27.862Z,102638.00
2019-03-28T15:21:59.122Z,102651.00
2019-03-28T15:24:31.518Z,102648.00
2019-03-28T15:27:03.441Z,102639.00
2019-03-28T15:29:34.770Z,102641.00
2019-03-28T15:32:06.138Z,102650.00
2019-03-28T15:34:37.306Z,102633.00
2019-03-28T15:37:09.689Z,102628.00
2019-03-28T15:39:40.971Z,102628.00
2019-03-28T15:42:12.231Z,102644.00
2019-03-28T15:44:43.679Z,102641.00
2019-03-28T15:47:15.213Z,102629.00
2019-03-28T15:50:05.827Z,102635.00
2019-03-28T15:52:37.071Z,102633.00
2019-03-28T15:55:14.523Z,102645.00
2019-03-28T15:57:44.631Z,102642.00
2019-03-28T16:00:16.491Z,102645.00
2019-03-28T16:02:47.665Z,102647.00
2019-03-28T16:05:21.711Z,102641.00
2019-03-28T16:07:53.129Z,102634.00
2019-03-28T16:10:24.363Z,102649.00
2019-03-28T16:12:56.093Z,102643.00
2019-03-28T16:15:27.370Z,102645.00
2019-03-28T16:17:58.483Z,102655.00
2019-03-28T16:20:29.497Z,102644.00
2019-03-28T16:23:00.758Z,102639.00
2019-03-28T16:25:32.088Z,102645.00
2019-03-28T16:28:03.412Z,102638.00
2019-03-28T16:30:36.980Z,102638.00
2019-03-28T16:33:09.017Z,102639.00
2019-03-28T16:35:40.738Z,102645.00
2019-03-28T16:38:12.126Z,102641.00
2019-03-28T16:40:44.013Z,102658.00
2019-03-28T16:43:15.637Z,102649.00
2019-03-28T16:45:47.452Z,102660.00
2019-03-28T16:48:18.925Z,102658.00
2019-03-28T16:50:50.210Z,102667.00
2019-03-28T16:53:21.607Z,102657.00
2019-03-28T16:55:52.793Z,102658.00
2019-03-28T16:58:24.257Z,102655.00
2019-03-28T17:00:56.049Z,102652.00
2019-03-28T17:03:27.452Z,102652.00
2019-03-28T17:05:59.616Z,102651.00
2019-03-28T17:08:32.846Z,102648.00
2019-03-28T17:11:06.040Z,102655.00
2019-03-28T17:13:37.792Z,102651.00
2019-03-28T17:16:09.593Z,102649.00
2019-03-28T17:18:41.091Z,102653.00
2019-03-28T17:21:13.731Z,102666.00
2019-03-28T17:23:45.319Z,102659.00
2019-03-28T17:26:17.063Z,102667.00
2019-03-28T17:28:49.068Z,102671.00
2019-03-28T17:31:20.194Z,102661.00
2019-03-28T17:33:51.258Z,102652.00
2019-03-28T17:36:22.362Z,102644.00
2019-03-28T17:38:53.714Z,102650.00
2019-03-28T17:41:26.194Z,102647.00
2019-03-28T17:43:57.222Z,102646.00
2019-03-28T17:46:28.090Z,102652.00
2019-03-28T17:48:59.588Z,102646.00
2019-03-28T17:51:30.662Z,102653.00
2019-03-28T17:54:03.032Z,102656.00
2019-03-28T17:56:33.933Z,102659.00
2019-03-28T17:59:04.686Z,102663.00
2019-03-28T18:01:35.535Z,102653.00
2019-03-28T18:04:06.712Z,102654.00
2019-03-28T18:06:37.767Z,102655.00
2019-03-28T18:09:09.563Z,102660.00
2019-03-28T18:11:40.539Z,102656.00
2019-03-28T18:14:12.752Z,102660.00
2019-03-28T18:16:43.706Z,102659.00
2019-03-28T18:19:14.812Z,102664.00
2019-03-28T18:22:02.394Z,102660.00
2019-03-28T18:24:22.231Z,102657.00
2019-03-28T18:26:53.503Z,102668.00
2019-03-28T18:29:24.921Z,102657.00
2019-03-28T18:31:57.226Z,102663.00
2019-03-28T18:34:28.860Z,102660.00
2019-03-28T18:37:00.074Z,102671.00
2019-03-28T18:39:31.533Z,102671.00
2019-03-28T18:42:02.496Z,102665.00
2019-03-28T18:44:35.545Z,102675.00
2019-03-28T18:47:06.757Z,102671.00
2019-03-28T18:49:37.745Z,102674.00
2019-03-28T18:52:08.947Z,102679.00
2019-03-28T18:54:40.541Z,102673.00
2019-03-28T18:57:12.102Z,102678.00
2019-03-28T18:59:46.272Z,102676.00
2019-03-28T19:02:17.394Z,102677.00
2019-03-28T19:04:48.588Z,102683.00
2019-03-28T19:07:20.160Z,102680.00
2019-03-28T19:09:51.076Z,102683.00
2019-03-28T19:12:22.489Z,102677.00
2019-03-28T19:14:53.721Z,102686.00
2019-03-28T19:17:24.626Z,102686.00
2019-03-28T19:19:55.511Z,102685.00
2019-03-28T19:22:26.570Z,102679.00
2019-03-28T19:24:58.772Z,102683.00
2019-03-28T19:27:30.351Z,102683.00
2019-03-28T19:30:01.271Z,102686.00
2019-03-28T19:32:35.105Z,102683.00
2019-03-28T19:35:07.059Z,102686.00
2019-03-28T19:37:40.614Z,102694.00
2019-03-28T19:40:12.832Z,102685.00
2019-03-28T19:42:44.082Z,102693.00
2019-03-28T19:45:19.140Z,102693.00
2019-03-28T19:47:52.740Z,102698.00
2019-03-28T19:50:29.433Z,102692.00
2019-03-28T19:53:00.557Z,102695.00
2019-03-28T19:55:31.691Z,102685.00
2019-03-28T19:58:05.197Z,102692.00
2019-03-28T20:00:36.351Z,102687.00
2019-03-28T20:03:07.198Z,102686.00
2019-03-28T20:05:47.559Z,102690.00
2019-03-28T20:08:16.092Z,102695.00
2019-03-28T20:10:45.549Z,102693.00
2019-03-28T20:13:16.699Z,102687.00
2019-03-28T20:15:47.841Z,102682.00
2019-03-28T20:21:20.775Z,102690.00
2019-03-28T20:23:53.058Z,102689.00
2019-03-28T20:26:24.426Z,102688.00
2019-03-28T20:28:56.979Z,102690.00
2019-03-28T20:31:27.928Z,102690.00
2019-03-28T20:33:59.263Z,102688.00
2019-03-28T20:36:37.683Z,102695.00
2019-03-28T20:39:04.156Z,102698.00
2019-03-28T20:41:37.488Z,102704.00
2019-03-28T20:44:11.537Z,102701.00
2019-03-28T20:46:41.903Z,102697.00
2019-03-28T20:49:13.293Z,102696.00
2019-03-28T20:51:44.188Z,102704.00
2019-03-28T20:54:15.227Z,102703.00
2019-03-28T20:56:46.085Z,102700.00
2019-03-28T20:59:16.981Z,102706.00
2019-03-28T21:01:47.877Z,102713.00
2019-03-28T21:04:30.581Z,102705.00
2019-03-28T21:06:51.763Z,102701.00
2019-03-28T21:09:22.857Z,102708.00
2019-03-28T21:11:53.826Z,102705.00
2019-03-28T21:14:26.186Z,102705.00
2019-03-28T21:16:58.219Z,102689.00
2019-03-28T21:19:30.479Z,102698.00
2019-03-28T21:22:05.712Z,102706.00
2019-03-28T21:24:35.670Z,102709.00
2019-03-28T21:27:06.993Z,102716.00
2019-03-28T21:29:48.297Z,102703.00
2019-03-28T21:32:10.946Z,102710.00
2019-03-28T21:34:41.881Z,102707.00
2019-03-28T21:37:13.010Z,102715.00
2019-03-28T21:39:44.066Z,102705.00
2019-03-28T21:42:15.269Z,102714.00
2019-03-28T21:44:46.111Z,102709.00
2019-03-28T21:47:16.956Z,102703.00
2019-03-28T21:49:47.874Z,102711.00
2019-03-28T21:52:18.746Z,102708.00
2019-03-28T21:54:50.707Z,102717.00
2019-03-28T21:57:21.832Z,102717.00
2019-03-28T21:59:53.340Z,102715.00
2019-03-28T22:02:24.901Z,102711.00
2019-03-28T22:04:56.323Z,102714.00
2019-03-28T22:07:27.185Z,102712.00
2019-03-28T22:09:58.215Z,102706.00
2019-03-28T22:12:30.315Z,102717.00
2019-03-28T22:15:01.185Z,102714.00
2019-03-28T22:17:32.106Z,102713.00
2019-03-28T22:20:03.243Z,102712.00
2019-03-28T22:22:34.159Z,102718.00
2019-03-28T22:25:06.547Z,102718.00
2019-03-28T22:27:38.245Z,102711.00
2019-03-28T22:30:13.011Z,102710.00
2019-03-28T22:32:44.200Z,102712.00
2019-03-28T22:35:17.363Z,102711.00
2019-03-28T22:37:51.029Z,102720.00
2019-03-28T22:40:22.666Z,102710.00
2019-03-28T22:42:54.684Z,102721.00
2019-03-28T22:45:25.996Z,102721.00
2019-03-28T22:48:09.698Z,102716.00
2019-03-28T22:50:30.777Z,102717.00
2019-03-28T22:53:01.614Z,102716.00
2019-03-28T22:55:32.589Z,102715.00
2019-03-28T22:58:03.557Z,102704.00
2019-03-28T23:00:50.832Z,102718.00
2019-03-28T23:03:21.926Z,102713.00
2019-03-28T23:05:53.003Z,102713.00
2019-03-28T23:08:25.167Z,102710.00
2019-03-28T23:10:56.106Z,102714.00
2019-03-28T23:13:27.990Z,102714.00
2019-03-28T23:15:59.144Z,102714.00
2019-03-28T23:18:29.991Z,102709.00
2019-03-28T23:21:02.961Z,102702.00
2019-03-28T23:23:33.812Z,102705.00
2019-03-28T23:26:05.707Z,102714.00
2019-03-28T23:28:36.677Z,102710.00
2019-03-28T23:31:07.599Z,102707.00
2019-03-28T23:33:39.977Z,102704.00
2019-03-28T23:36:12.288Z,102715.00
2019-03-28T23:38:43.148Z,102705.00
2019-03-28T23:41:15.635Z,102699.00
2019-03-28T23:43:46.531Z,102692.00
2019-03-28T23:46:17.372Z,102707.00
2019-03-28T23:48:48.250Z,102693.00
2019-03-28T23:51:19.244Z,102695.00
2019-03-28T23:53:53.735Z,102696.00
2019-03-28T23:56:24.786Z,102697.00
2019-03-28T23:58:55.614Z,102694.00
